sensor_id;sensor_type;location;lat;lon;timestamp;pressure;altitude;pressure_sealevel;temperature;humidity
78615;BME280;67937;52.488;20.952;2024-03-08T00:01:55;101595.98;;;-2.71;75.96
78615;BME280;67937;52.488;20.952;2024-03-08T00:04:23;101596.66;;;-2.71;75.51
78615;BME280;67937;52.488;20.952;2024-03-08T00:06:51;101596.45;;;-2.65;75.37
78615;BME280;67937;52.488;20.952;2024-03-08T00:09:19;101597.30;;;-2.58;75.43
78615;BME280;67937;52.488;20.952;2024-03-08T00:11:48;101594.06;;;-2.68;75.74
78615;BME280;67937;52.488;20.952;2024-03-08T00:14:16;101592.70;;;-2.74;75.53
78615;BME280;67937;52.488;20.952;2024-03-08T00:16:44;101591.84;;;-2.70;75.39
78615;BME280;67937;52.488;20.952;2024-03-08T00:19:12;101591.81;;;-2.67;75.47
78615;BME280;67937;52.488;20.952;2024-03-08T00:21:40;101591.27;;;-2.64;75.40
78615;BME280;67937;52.488;20.952;2024-03-08T00:24:08;101591.98;;;-2.64;75.50
78615;BME280;67937;52.488;20.952;2024-03-08T00:26:36;101589.02;;;-2.61;75.69
78615;BME280;67937;52.488;20.952;2024-03-08T00:29:04;101587.98;;;-2.63;76.01
78615;BME280;67937;52.488;20.952;2024-03-08T00:31:34;101590.31;;;-2.82;76.61
78615;BME280;67937;52.488;20.952;2024-03-08T00:34:02;101587.25;;;-2.89;76.10
78615;BME280;67937;52.488;20.952;2024-03-08T00:36:30;101590.34;;;-2.85;75.95
78615;BME280;67937;52.488;20.952;2024-03-08T00:38:58;101589.68;;;-2.92;75.97
78615;BME280;67937;52.488;20.952;2024-03-08T00:41:28;101587.25;;;-2.89;75.97
78615;BME280;67937;52.488;20.952;2024-03-08T00:43:56;101585.00;;;-2.87;75.93
78615;BME280;67937;52.488;20.952;2024-03-08T00:46:24;101587.42;;;-2.88;75.99
78615;BME280;67937;52.488;20.952;2024-03-08T00:48:52;101588.13;;;-2.95;76.26
78615;BME280;67937;52.488;20.952;2024-03-08T00:51:19;101592.52;;;-3.12;77.32
78615;BME280;67937;52.488;20.952;2024-03-08T00:53:47;101591.36;;;-3.26;77.00
78615;BME280;67937;52.488;20.952;2024-03-08T00:56:15;101591.19;;;-3.25;76.59
78615;BME280;67937;52.488;20.952;2024-03-08T00:58:43;101590.83;;;-3.20;76.30
78615;BME280;67937;52.488;20.952;2024-03-08T01:01:13;101584.94;;;-3.14;76.34
78615;BME280;67937;52.488;20.952;2024-03-08T01:03:45;101585.61;;;-3.09;76.17
78615;BME280;67937;52.488;20.952;2024-03-08T01:06:13;101582.84;;;-3.09;76.33
78615;BME280;67937;52.488;20.952;2024-03-08T01:08:41;101584.04;;;-3.03;76.32
78615;BME280;67937;52.488;20.952;2024-03-08T01:11:09;101580.40;;;-3.04;76.42
78615;BME280;67937;52.488;20.952;2024-03-08T01:13:37;101579.21;;;-3.05;76.47
78615;BME280;67937;52.488;20.952;2024-03-08T01:16:05;101573.50;;;-3.03;76.36
78615;BME280;67937;52.488;20.952;2024-03-08T01:18:33;101574.70;;;-3.02;76.35
78615;BME280;67937;52.488;20.952;2024-03-08T01:21:01;101568.52;;;-3.08;76.65
78615;BME280;67937;52.488;20.952;2024-03-08T01:23:29;101570.10;;;-3.14;76.55
78615;BME280;67937;52.488;20.952;2024-03-08T01:25:57;101568.54;;;-3.15;76.50
78615;BME280;67937;52.488;20.952;2024-03-08T01:28:26;101563.03;;;-3.17;76.95
78615;BME280;67937;52.488;20.952;2024-03-08T01:30:54;101562.72;;;-3.30;77.09
78615;BME280;67937;52.488;20.952;2024-03-08T01:33:24;101560.30;;;-3.28;76.70
78615;BME280;67937;52.488;20.952;2024-03-08T01:35:53;101563.94;;;-3.29;77.21
78615;BME280;67937;52.488;20.952;2024-03-08T01:38:21;101560.17;;;-3.41;77.23
78615;BME280;67937;52.488;20.952;2024-03-08T01:40:52;101562.42;;;-3.42;76.84
78615;BME280;67937;52.488;20.952;2024-03-08T01:43:21;101556.92;;;-3.51;77.65
78615;BME280;67937;52.488;20.952;2024-03-08T01:45:50;101553.33;;;-3.63;78.29
78615;BME280;67937;52.488;20.952;2024-03-08T01:48:18;101553.34;;;-3.71;78.28
78615;BME280;67937;52.488;20.952;2024-03-08T01:50:51;101555.60;;;-3.77;78.70
78615;BME280;67937;52.488;20.952;2024-03-08T01:53:22;101554.05;;;-3.82;78.46
78615;BME280;67937;52.488;20.952;2024-03-08T01:55:53;101554.02;;;-3.71;77.72
78615;BME280;67937;52.488;20.952;2024-03-08T01:58:22;101550.92;;;-3.72;78.49
78615;BME280;67937;52.488;20.952;2024-03-08T02:00:52;101546.98;;;-3.80;79.19
78615;BME280;67937;52.488;20.952;2024-03-08T02:03:21;101546.81;;;-3.84;78.15
78615;BME280;67937;52.488;20.952;2024-03-08T02:05:49;101545.60;;;-3.80;77.58
78615;BME280;67937;52.488;20.952;2024-03-08T02:08:18;101545.91;;;-3.71;77.37
78615;BME280;67937;52.488;20.952;2024-03-08T02:10:49;101544.35;;;-3.64;77.31
78615;BME280;67937;52.488;20.952;2024-03-08T02:13:17;101540.55;;;-3.61;77.61
78615;BME280;67937;52.488;20.952;2024-03-08T02:15:56;101541.41;;;-3.60;77.36
78615;BME280;67937;52.488;20.952;2024-03-08T02:18:26;101536.23;;;-3.57;77.18
78615;BME280;67937;52.488;20.952;2024-03-08T02:20:55;101534.84;;;-3.52;77.11
78615;BME280;67937;52.488;20.952;2024-03-08T02:23:24;101535.50;;;-3.44;76.98
78615;BME280;67937;52.488;20.952;2024-03-08T02:25:54;101536.52;;;-3.38;76.97
78615;BME280;67937;52.488;20.952;2024-03-08T02:28:23;101533.06;;;-3.33;76.84
78615;BME280;67937;52.488;20.952;2024-03-08T02:30:53;101535.81;;;-3.32;76.77
78615;BME280;67937;52.488;20.952;2024-03-08T02:33:23;101531.34;;;-3.36;77.15
78615;BME280;67937;52.488;20.952;2024-03-08T02:35:51;101532.91;;;-3.43;77.02
78615;BME280;67937;52.488;20.952;2024-03-08T02:38:23;101536.71;;;-3.42;77.05
78615;BME280;67937;52.488;20.952;2024-03-08T02:40:52;101530.48;;;-3.36;77.03
78615;BME280;67937;52.488;20.952;2024-03-08T02:43:21;101530.98;;;-3.32;76.89
78615;BME280;67937;52.488;20.952;2024-03-08T02:45:51;101528.90;;;-3.31;76.89
78615;BME280;67937;52.488;20.952;2024-03-08T02:48:20;101530.28;;;-3.30;76.86
78615;BME280;67937;52.488;20.952;2024-03-08T02:50:49;101530.27;;;-3.29;77.00
78615;BME280;67937;52.488;20.952;2024-03-08T02:53:17;101530.11;;;-3.29;77.00
78615;BME280;67937;52.488;20.952;2024-03-08T02:55:46;101526.34;;;-3.37;77.22
78615;BME280;67937;52.488;20.952;2024-03-08T02:58:14;101525.71;;;-3.57;77.68
78615;BME280;67937;52.488;20.952;2024-03-08T03:00:42;101523.50;;;-3.70;77.67
78615;BME280;67937;52.488;20.952;2024-03-08T03:03:10;101525.22;;;-3.65;77.45
78615;BME280;67937;52.488;20.952;2024-03-08T03:05:38;101522.10;;;-3.62;77.19
78615;BME280;67937;52.488;20.952;2024-03-08T03:08:08;101519.52;;;-3.60;77.15
78615;BME280;67937;52.488;20.952;2024-03-08T03:10:37;101520.55;;;-3.58;77.02
78615;BME280;67937;52.488;20.952;2024-03-08T03:13:05;101520.02;;;-3.57;76.95
78615;BME280;67937;52.488;20.952;2024-03-08T03:15:34;101517.95;;;-3.56;76.86
78615;BME280;67937;52.488;20.952;2024-03-08T03:18:03;101518.98;;;-3.57;76.86
78615;BME280;67937;52.488;20.952;2024-03-08T03:20:34;101515.38;;;-3.63;77.11
78615;BME280;67937;52.488;20.952;2024-03-08T03:23:06;101512.64;;;-3.67;77.15
78615;BME280;67937;52.488;20.952;2024-03-08T03:25:35;101513.14;;;-3.67;77.16
78615;BME280;67937;52.488;20.952;2024-03-08T03:28:05;101515.58;;;-3.70;77.11
78615;BME280;67937;52.488;20.952;2024-03-08T03:30:35;101514.02;;;-3.71;77.15
78615;BME280;67937;52.488;20.952;2024-03-08T03:33:03;101520.58;;;-3.73;77.16
78615;BME280;67937;52.488;20.952;2024-03-08T03:35:33;101519.23;;;-3.86;77.82
78615;BME280;67937;52.488;20.952;2024-03-08T03:38:02;101515.63;;;-3.97;77.88
78615;BME280;67937;52.488;20.952;2024-03-08T03:40:33;101515.27;;;-3.88;77.70
78615;BME280;67937;52.488;20.952;2024-03-08T03:43:02;101513.52;;;-3.81;77.58
78615;BME280;67937;52.488;20.952;2024-03-08T03:45:31;101510.94;;;-3.78;77.59
78615;BME280;67937;52.488;20.952;2024-03-08T03:48:02;101509.73;;;-3.76;77.46
78615;BME280;67937;52.488;20.952;2024-03-08T03:50:31;101508.69;;;-3.74;77.47
78615;BME280;67937;52.488;20.952;2024-03-08T03:53:01;101506.44;;;-3.73;77.55
78615;BME280;67937;52.488;20.952;2024-03-08T03:55:29;101508.36;;;-3.89;78.01
78615;BME280;67937;52.488;20.952;2024-03-08T03:57:57;101506.34;;;-4.05;78.45
78615;BME280;67937;52.488;20.952;2024-03-08T04:00:27;101511.16;;;-4.16;78.53
78615;BME280;67937;52.488;20.952;2024-03-08T04:02:55;101513.40;;;-4.26;78.71
78615;BME280;67937;52.488;20.952;2024-03-08T04:05:27;101507.38;;;-4.32;78.67
78615;BME280;67937;52.488;20.952;2024-03-08T04:07:55;101505.65;;;-4.28;78.30
78615;BME280;67937;52.488;20.952;2024-03-08T04:10:23;101504.44;;;-4.19;78.05
78615;BME280;67937;52.488;20.952;2024-03-08T04:12:51;101503.41;;;-4.17;77.82
78615;BME280;67937;52.488;20.952;2024-03-08T04:15:19;101499.77;;;-4.13;77.83
78615;BME280;67937;52.488;20.952;2024-03-08T04:17:47;101498.40;;;-4.16;77.89
78615;BME280;67937;52.488;20.952;2024-03-08T04:20:15;101496.88;;;-4.28;78.44
78615;BME280;67937;52.488;20.952;2024-03-08T04:22:44;101498.25;;;-4.38;78.76
78615;BME280;67937;52.488;20.952;2024-03-08T04:25:13;101498.59;;;-4.48;79.08
78615;BME280;67937;52.488;20.952;2024-03-08T04:27:41;101497.38;;;-4.56;79.33
78615;BME280;67937;52.488;20.952;2024-03-08T04:30:11;101494.80;;;-4.60;78.95
78615;BME280;67937;52.488;20.952;2024-03-08T04:32:39;101495.82;;;-4.54;78.31
78615;BME280;67937;52.488;20.952;2024-03-08T04:35:08;101498.42;;;-4.45;78.27
78615;BME280;67937;52.488;20.952;2024-03-08T04:37:36;101498.58;;;-4.53;78.75
78615;BME280;67937;52.488;20.952;2024-03-08T04:40:04;101497.36;;;-4.61;79.39
78615;BME280;67937;52.488;20.952;2024-03-08T04:42:33;101496.34;;;-4.64;79.08
78615;BME280;67937;52.488;20.952;2024-03-08T04:45:02;101497.21;;;-4.52;78.41
78615;BME280;67937;52.488;20.952;2024-03-08T04:47:31;101497.55;;;-4.42;78.16
78615;BME280;67937;52.488;20.952;2024-03-08T04:49:59;101493.77;;;-4.34;78.16
78615;BME280;67937;52.488;20.952;2024-03-08T04:52:27;101493.94;;;-4.27;77.96
78615;BME280;67937;52.488;20.952;2024-03-08T04:54:55;101492.90;;;-4.29;78.17
78615;BME280;67937;52.488;20.952;2024-03-08T04:57:23;101496.86;;;-4.42;78.65
78615;BME280;67937;52.488;20.952;2024-03-08T04:59:52;101497.72;;;-4.52;78.63
78615;BME280;67937;52.488;20.952;2024-03-08T05:02:21;101493.59;;;-4.47;78.24
78615;BME280;67937;52.488;20.952;2024-03-08T05:04:49;101499.11;;;-4.36;78.02
78615;BME280;67937;52.488;20.952;2024-03-08T05:07:17;101497.20;;;-4.28;77.88
78615;BME280;67937;52.488;20.952;2024-03-08T05:09:45;101496.69;;;-4.25;77.80
78615;BME280;67937;52.488;20.952;2024-03-08T05:12:18;101495.65;;;-4.21;77.65
78615;BME280;67937;52.488;20.952;2024-03-08T05:14:46;101495.99;;;-4.18;77.55
78615;BME280;67937;52.488;20.952;2024-03-08T05:17:16;101498.58;;;-4.13;77.57
78615;BME280;67937;52.488;20.952;2024-03-08T05:19:44;101499.27;;;-4.11;77.58
78615;BME280;67937;52.488;20.952;2024-03-08T05:22:12;101501.50;;;-4.13;77.65
78615;BME280;67937;52.488;20.952;2024-03-08T05:24:41;101500.82;;;-4.10;77.70
78615;BME280;67937;52.488;20.952;2024-03-08T05:27:09;101502.02;;;-4.05;77.62
78615;BME280;67937;52.488;20.952;2024-03-08T05:29:37;101499.42;;;-4.02;77.59
78615;BME280;67937;52.488;20.952;2024-03-08T05:32:05;101500.27;;;-4.00;77.51
78615;BME280;67937;52.488;20.952;2024-03-08T05:34:33;101496.48;;;-3.96;77.42
78615;BME280;67937;52.488;20.952;2024-03-08T05:37:02;101500.28;;;-3.99;77.58
78615;BME280;67937;52.488;20.952;2024-03-08T05:39:30;101495.64;;;-4.13;78.24
78615;BME280;67937;52.488;20.952;2024-03-08T05:41:58;101494.78;;;-4.19;78.21
78615;BME280;67937;52.488;20.952;2024-03-08T05:44:26;101495.64;;;-4.12;78.01
78615;BME280;67937;52.488;20.952;2024-03-08T05:46:55;101494.44;;;-4.02;77.79
78615;BME280;67937;52.488;20.952;2024-03-08T05:49:23;101494.58;;;-3.92;77.63
78615;BME280;67937;52.488;20.952;2024-03-08T05:51:51;101493.02;;;-3.82;77.58
78615;BME280;67937;52.488;20.952;2024-03-08T05:54:20;101489.04;;;-3.80;78.06
78615;BME280;67937;52.488;20.952;2024-03-08T05:56:50;101490.39;;;-3.73;77.82
78615;BME280;67937;52.488;20.952;2024-03-08T05:59:19;101492.09;;;-3.59;77.83
78615;BME280;67937;52.488;20.952;2024-03-08T06:01:49;101492.05;;;-3.51;77.94
78615;BME280;67937;52.488;20.952;2024-03-08T06:04:17;101485.98;;;-3.44;78.18
78615;BME280;67937;52.488;20.952;2024-03-08T06:06:45;101489.59;;;-3.37;78.96
78615;BME280;67937;52.488;20.952;2024-03-08T06:09:13;101490.41;;;-3.28;78.58
78615;BME280;67937;52.488;20.952;2024-03-08T06:11:49;101491.54;;;-3.13;78.03
78615;BME280;67937;52.488;20.952;2024-03-08T06:14:17;101493.17;;;-2.97;78.24
78615;BME280;67937;52.488;20.952;2024-03-08T06:16:46;101493.08;;;-2.79;78.33
78615;BME280;67937;52.488;20.952;2024-03-08T06:19:16;101493.16;;;-2.66;78.36
78615;BME280;67937;52.488;20.952;2024-03-08T06:21:44;101493.05;;;-2.49;78.37
78615;BME280;67937;52.488;20.952;2024-03-08T06:24:12;101492.20;;;-2.29;78.69
78615;BME280;67937;52.488;20.952;2024-03-08T06:26:41;101492.23;;;-2.14;79.22
78615;BME280;67937;52.488;20.952;2024-03-08T06:29:09;101495.04;;;-2.00;79.25
78615;BME280;67937;52.488;20.952;2024-03-08T06:31:37;101496.64;;;-1.87;78.40
78615;BME280;67937;52.488;20.952;2024-03-08T06:34:06;101497.55;;;-1.74;78.48
78615;BME280;67937;52.488;20.952;2024-03-08T06:36:35;101495.13;;;-1.58;78.06
78615;BME280;67937;52.488;20.952;2024-03-08T06:39:04;101494.09;;;-1.44;78.38
78615;BME280;67937;52.488;20.952;2024-03-08T06:41:38;101493.08;;;-1.32;78.55
78615;BME280;67937;52.488;20.952;2024-03-08T06:44:06;101489.06;;;-1.16;78.86
78615;BME280;67937;52.488;20.952;2024-03-08T06:46:35;101493.41;;;-1.04;78.88
78615;BME280;67937;52.488;20.952;2024-03-08T06:49:04;101485.39;;;-0.88;78.98
78615;BME280;67937;52.488;20.952;2024-03-08T06:51:33;101488.45;;;-0.72;79.16
78615;BME280;67937;52.488;20.952;2024-03-08T06:54:01;101493.08;;;-0.58;79.41
78615;BME280;67937;52.488;20.952;2024-03-08T06:56:35;101489.20;;;-0.42;79.71
78615;BME280;67937;52.488;20.952;2024-03-08T06:59:03;101484.44;;;-0.28;79.79
78615;BME280;67937;52.488;20.952;2024-03-08T07:01:31;101485.42;;;-0.14;79.71
78615;BME280;67937;52.488;20.952;2024-03-08T07:04:01;101482.17;;;0.04;79.90
78615;BME280;67937;52.488;20.952;2024-03-08T07:06:35;101479.45;;;0.20;80.14
78615;BME280;67937;52.488;20.952;2024-03-08T07:09:25;101481.89;;;0.37;80.38
78615;BME280;67937;52.488;20.952;2024-03-08T07:11:53;101478.85;;;0.51;80.62
78615;BME280;67937;52.488;20.952;2024-03-08T07:14:22;101481.36;;;0.64;80.88
78615;BME280;67937;52.488;20.952;2024-03-08T07:16:50;101482.09;;;0.71;80.92
78615;BME280;67937;52.488;20.952;2024-03-08T07:19:19;101479.84;;;0.79;81.00
78615;BME280;67937;52.488;20.952;2024-03-08T07:21:48;101475.98;;;0.89;80.57
78615;BME280;67937;52.488;20.952;2024-03-08T07:24:16;101469.56;;;0.96;80.85
78615;BME280;67937;52.488;20.952;2024-03-08T07:27:04;101466.75;;;1.12;80.58
78615;BME280;67937;52.488;20.952;2024-03-08T07:29:32;101466.09;;;1.26;79.90
78615;BME280;67937;52.488;20.952;2024-03-08T07:32:00;101462.54;;;1.37;79.74
78615;BME280;67937;52.488;20.952;2024-03-08T07:34:41;101460.46;;;1.51;79.37
78615;BME280;67937;52.488;20.952;2024-03-08T07:37:08;101461.34;;;1.65;78.68
78615;BME280;67937;52.488;20.952;2024-03-08T07:39:38;101465.67;;;1.72;77.63
78615;BME280;67937;52.488;20.952;2024-03-08T07:42:06;101467.71;;;1.81;76.91
78615;BME280;67937;52.488;20.952;2024-03-08T07:44:34;101469.06;;;1.89;75.94
78615;BME280;67937;52.488;20.952;2024-03-08T07:47:03;101466.22;;;1.98;74.97
78615;BME280;67937;52.488;20.952;2024-03-08T07:49:31;101463.75;;;2.06;74.72
78615;BME280;67937;52.488;20.952;2024-03-08T07:51:59;101466.50;;;2.13;72.98
78615;BME280;67937;52.488;20.952;2024-03-08T07:54:27;101467.45;;;2.23;73.09
78615;BME280;67937;52.488;20.952;2024-03-08T07:56:55;101468.73;;;2.40;72.67
78615;BME280;67937;52.488;20.952;2024-03-08T07:59:22;101466.01;;;2.51;71.88
78615;BME280;67937;52.488;20.952;2024-03-08T08:01:51;101464.59;;;2.57;72.27
78615;BME280;67937;52.488;20.952;2024-03-08T08:04:18;101462.75;;;2.67;71.42
78615;BME280;67937;52.488;20.952;2024-03-08T08:06:51;101458.79;;;2.77;72.03
78615;BME280;67937;52.488;20.952;2024-03-08T08:09:19;101454.89;;;2.85;71.40
78615;BME280;67937;52.488;20.952;2024-03-08T08:11:55;101459.47;;;2.95;70.70
78615;BME280;67937;52.488;20.952;2024-03-08T08:14:22;101459.27;;;3.07;70.52
78615;BME280;67937;52.488;20.952;2024-03-08T08:16:50;101457.58;;;3.17;69.04
78615;BME280;67937;52.488;20.952;2024-03-08T08:19:19;101453.98;;;3.26;68.85
78615;BME280;67937;52.488;20.952;2024-03-08T08:21:47;101450.77;;;3.39;69.03
78615;BME280;67937;52.488;20.952;2024-03-08T08:24:16;101446.39;;;3.50;68.18
78615;BME280;67937;52.488;20.952;2024-03-08T08:26:44;101445.41;;;3.59;67.68
78615;BME280;67937;52.488;20.952;2024-03-08T08:29:12;101442.70;;;3.72;66.98
78615;BME280;67937;52.488;20.952;2024-03-08T08:31:40;101445.70;;;3.81;65.63
78615;BME280;67937;52.488;20.952;2024-03-08T08:34:11;101440.67;;;3.90;65.35
78615;BME280;67937;52.488;20.952;2024-03-08T08:36:40;101442.05;;;3.96;65.35
78615;BME280;67937;52.488;20.952;2024-03-08T08:39:08;101439.59;;;4.07;65.67
78615;BME280;67937;52.488;20.952;2024-03-08T08:41:40;101435.10;;;4.15;64.93
78615;BME280;67937;52.488;20.952;2024-03-08T08:44:08;101437.00;;;4.20;65.12
78615;BME280;67937;52.488;20.952;2024-03-08T08:46:39;101432.73;;;4.32;65.19
78615;BME280;67937;52.488;20.952;2024-03-08T08:49:07;101432.14;;;4.43;65.62
78615;BME280;67937;52.488;20.952;2024-03-08T08:51:37;101429.58;;;4.51;64.35
78615;BME280;67937;52.488;20.952;2024-03-08T08:54:05;101425.11;;;4.58;63.95
78615;BME280;67937;52.488;20.952;2024-03-08T08:56:33;101423.88;;;4.68;62.64
78615;BME280;67937;52.488;20.952;2024-03-08T08:59:01;101423.86;;;4.77;63.66
78615;BME280;67937;52.488;20.952;2024-03-08T09:01:31;101421.71;;;4.83;63.76
78615;BME280;67937;52.488;20.952;2024-03-08T09:03:59;101423.41;;;4.89;62.82
78615;BME280;67937;52.488;20.952;2024-03-08T09:06:27;101424.85;;;4.92;62.91
78615;BME280;67937;52.488;20.952;2024-03-08T09:08:56;101424.41;;;4.95;63.13
78615;BME280;67937;52.488;20.952;2024-03-08T09:11:24;101422.35;;;4.98;62.51
78615;BME280;67937;52.488;20.952;2024-03-08T09:13:52;101425.06;;;5.01;61.86
78615;BME280;67937;52.488;20.952;2024-03-08T09:16:20;101424.34;;;5.05;61.92
78615;BME280;67937;52.488;20.952;2024-03-08T09:18:49;101419.19;;;5.12;62.13
78615;BME280;67937;52.488;20.952;2024-03-08T09:21:17;101417.56;;;5.17;60.77
78615;BME280;67937;52.488;20.952;2024-03-08T09:23:45;101414.16;;;5.24;59.81
78615;BME280;67937;52.488;20.952;2024-03-08T09:26:13;101416.89;;;5.26;59.81
78615;BME280;67937;52.488;20.952;2024-03-08T09:28:41;101415.54;;;5.29;60.16
78615;BME280;67937;52.488;20.952;2024-03-08T09:31:09;101416.35;;;5.31;59.27
78615;BME280;67937;52.488;20.952;2024-03-08T09:33:38;101409.13;;;5.40;58.78
78615;BME280;67937;52.488;20.952;2024-03-08T09:36:07;101403.95;;;5.43;58.67
78615;BME280;67937;52.488;20.952;2024-03-08T09:38:35;101405.83;;;5.40;59.06
78615;BME280;67937;52.488;20.952;2024-03-08T09:41:03;101403.39;;;5.48;59.35
78615;BME280;67937;52.488;20.952;2024-03-08T09:43:31;101402.85;;;5.61;57.55
78615;BME280;67937;52.488;20.952;2024-03-08T09:46:00;101400.15;;;5.63;56.51
78615;BME280;67937;52.488;20.952;2024-03-08T09:48:28;101395.83;;;5.74;58.03
78615;BME280;67937;52.488;20.952;2024-03-08T09:50:57;101393.64;;;5.80;57.16
78615;BME280;67937;52.488;20.952;2024-03-08T09:53:27;101394.56;;;5.83;57.59
78615;BME280;67937;52.488;20.952;2024-03-08T09:55:55;101391.48;;;5.86;56.02
78615;BME280;67937;52.488;20.952;2024-03-08T09:58:23;101387.80;;;5.89;54.51
78615;BME280;67937;52.488;20.952;2024-03-08T10:01:05;101390.02;;;5.83;54.72
78615;BME280;67937;52.488;20.952;2024-03-08T10:03:33;101388.65;;;5.86;55.87
78615;BME280;67937;52.488;20.952;2024-03-08T10:06:02;101388.83;;;5.90;55.61
78615;BME280;67937;52.488;20.952;2024-03-08T10:08:32;101381.48;;;5.94;56.21
78615;BME280;67937;52.488;20.952;2024-03-08T10:11:01;101379.70;;;6.03;55.41
78615;BME280;67937;52.488;20.952;2024-03-08T10:13:29;101379.38;;;6.02;54.07
78615;BME280;67937;52.488;20.952;2024-03-08T10:15:58;101379.46;;;5.96;53.35
78615;BME280;67937;52.488;20.952;2024-03-08T10:18:26;101379.20;;;5.98;53.29
78615;BME280;67937;52.488;20.952;2024-03-08T10:21:04;101378.71;;;6.09;54.43
78615;BME280;67937;52.488;20.952;2024-03-08T10:23:33;101377.20;;;6.19;53.92
78615;BME280;67937;52.488;20.952;2024-03-08T10:26:12;101378.46;;;6.26;54.30
78615;BME280;67937;52.488;20.952;2024-03-08T10:28:44;101370.27;;;6.37;53.01
78615;BME280;67937;52.488;20.952;2024-03-08T10:31:12;101372.18;;;6.29;53.27
78615;BME280;67937;52.488;20.952;2024-03-08T10:33:41;101376.52;;;6.30;53.79
78615;BME280;67937;52.488;20.952;2024-03-08T10:36:13;101372.92;;;6.36;53.78
78615;BME280;67937;52.488;20.952;2024-03-08T10:38:42;101371.80;;;6.42;53.22
78615;BME280;67937;52.488;20.952;2024-03-08T10:41:13;101367.54;;;6.58;51.87
78615;BME280;67937;52.488;20.952;2024-03-08T10:44:02;101364.84;;;6.48;51.96
78615;BME280;67937;52.488;20.952;2024-03-08T10:46:48;101362.14;;;6.57;53.42
78615;BME280;67937;52.488;20.952;2024-03-08T10:49:26;101357.23;;;6.76;52.34
78615;BME280;67937;52.488;20.952;2024-03-08T10:52:03;101354.56;;;6.84;51.51
78615;BME280;67937;52.488;20.952;2024-03-08T10:54:32;101352.10;;;6.88;50.40
78615;BME280;67937;52.488;20.952;2024-03-08T10:57:03;101351.21;;;6.88;50.91
78615;BME280;67937;52.488;20.952;2024-03-08T10:59:34;101347.20;;;6.94;50.32
78615;BME280;67937;52.488;20.952;2024-03-08T11:02:03;101351.74;;;6.98;50.90
78615;BME280;67937;52.488;20.952;2024-03-08T11:04:32;101346.73;;;7.08;50.48
78615;BME280;67937;52.488;20.952;2024-03-08T11:07:01;101346.89;;;7.18;49.41
78615;BME280;67937;52.488;20.952;2024-03-08T11:09:36;101344.88;;;7.17;48.56
78615;BME280;67937;52.488;20.952;2024-03-08T11:12:26;101342.09;;;7.20;48.55
78615;BME280;67937;52.488;20.952;2024-03-08T11:14:59;101334.98;;;7.21;49.27
78615;BME280;67937;52.488;20.952;2024-03-08T11:19:59;101333.48;;;7.44;48.73
78615;BME280;67937;52.488;20.952;2024-03-08T11:22:32;101331.20;;;7.47;48.60
78615;BME280;67937;52.488;20.952;2024-03-08T11:25:02;101333.27;;;7.59;49.19
78615;BME280;67937;52.488;20.952;2024-03-08T11:27:35;101330.70;;;7.78;49.61
78615;BME280;67937;52.488;20.952;2024-03-08T11:30:06;101321.33;;;7.96;48.44
78615;BME280;67937;52.488;20.952;2024-03-08T11:32:38;101322.57;;;8.02;48.24
78615;BME280;67937;52.488;20.952;2024-03-08T11:35:19;101322.11;;;8.08;47.97
78615;BME280;67937;52.488;20.952;2024-03-08T11:37:49;101320.38;;;8.16;45.86
78615;BME280;67937;52.488;20.952;2024-03-08T11:40:17;101320.23;;;8.13;46.96
78615;BME280;67937;52.488;20.952;2024-03-08T11:42:46;101316.45;;;8.17;46.04
78615;BME280;67937;52.488;20.952;2024-03-08T11:45:16;101313.48;;;8.28;46.36
78615;BME280;67937;52.488;20.952;2024-03-08T11:47:44;101309.52;;;8.48;46.12
78615;BME280;67937;52.488;20.952;2024-03-08T11:50:14;101304.40;;;8.61;45.34
78615;BME280;67937;52.488;20.952;2024-03-08T11:52:43;101305.00;;;8.60;44.55
78615;BME280;67937;52.488;20.952;2024-03-08T11:55:11;101301.60;;;8.58;45.88
78615;BME280;67937;52.488;20.952;2024-03-08T11:57:40;101299.80;;;8.65;45.18
78615;BME280;67937;52.488;20.952;2024-03-08T12:00:15;101296.48;;;8.89;44.99
78615;BME280;67937;52.488;20.952;2024-03-08T12:03:02;101292.73;;;8.96;44.45
78615;BME280;67937;52.488;20.952;2024-03-08T12:05:31;101292.41;;;9.05;44.50
78615;BME280;67937;52.488;20.952;2024-03-08T12:08:00;101289.77;;;9.08;43.91
78615;BME280;67937;52.488;20.952;2024-03-08T12:10:29;101291.64;;;9.15;43.86
78615;BME280;67937;52.488;20.952;2024-03-08T12:12:58;101285.39;;;9.22;43.38
78615;BME280;67937;52.488;20.952;2024-03-08T12:15:28;101280.89;;;9.27;44.74
78615;BME280;67937;52.488;20.952;2024-03-08T12:17:59;101278.34;;;9.34;43.52
78615;BME280;67937;52.488;20.952;2024-03-08T12:20:29;101280.86;;;9.39;43.78
78615;BME280;67937;52.488;20.952;2024-03-08T12:22:58;101274.41;;;9.44;43.83
78615;BME280;67937;52.488;20.952;2024-03-08T12:25:35;101274.89;;;9.56;44.76
78615;BME280;67937;52.488;20.952;2024-03-08T12:28:10;101269.80;;;9.65;43.23
78615;BME280;67937;52.488;20.952;2024-03-08T12:30:47;101262.44;;;9.73;45.02
78615;BME280;67937;52.488;20.952;2024-03-08T12:33:17;101262.14;;;10.03;45.04
78615;BME280;67937;52.488;20.952;2024-03-08T12:35:53;101252.69;;;10.16;43.54
78615;BME280;67937;52.488;20.952;2024-03-08T12:38:21;101250.67;;;10.03;42.84
78615;BME280;67937;52.488;20.952;2024-03-08T12:40:55;101248.62;;;9.74;42.02
78615;BME280;67937;52.488;20.952;2024-03-08T12:43:23;101245.36;;;9.47;42.98
78615;BME280;67937;52.488;20.952;2024-03-08T12:45:51;101242.88;;;9.49;44.90
78615;BME280;67937;52.488;20.952;2024-03-08T12:48:20;101239.46;;;9.65;45.86
78615;BME280;67937;52.488;20.952;2024-03-08T12:50:48;101238.65;;;9.78;43.25
78615;BME280;67937;52.488;20.952;2024-03-08T12:53:18;101238.34;;;9.77;45.43
78615;BME280;67937;52.488;20.952;2024-03-08T12:55:46;101233.03;;;9.89;46.17
78615;BME280;67937;52.488;20.952;2024-03-08T12:58:14;101227.89;;;9.87;43.01
78615;BME280;67937;52.488;20.952;2024-03-08T13:00:43;101225.23;;;9.56;43.66